createdAt,value
2022-08-03T00:01:45.187Z,1.70
2022-08-03T00:06:49.976Z,1.93
2022-08-03T00:11:53.418Z,1.90
2022-08-03T00:16:56.909Z,2.27
2022-08-03T00:22:01.733Z,1.90
2022-08-03T00:27:05.557Z,2.10
2022-08-03T00:32:09.625Z,2.00
2022-08-03T00:37:17.010Z,1.87
2022-08-03T00:42:20.449Z,2.27
2022-08-03T00:47:23.881Z,2.37
2022-08-03T00:52:28.661Z,2.40
2022-08-03T00:57:33.231Z,2.23
2022-08-03T01:02:36.949Z,2.33
2022-08-03T01:07:46.587Z,1.90
2022-08-03T01:12:54.114Z,2.10
2022-08-03T01:17:58.594Z,2.30
2022-08-03T01:23:16.129Z,2.10
2022-08-03T01:28:34.099Z,2.00
2022-08-03T01:33:41.955Z,1.90
2022-08-03T01:38:48.225Z,2.00
2022-08-03T01:44:26.732Z,1.80
2022-08-03T01:49:18.238Z,1.80
2022-08-03T01:54:22.153Z,2.03
2022-08-03T01:59:26.898Z,2.00
2022-08-03T02:04:31.897Z,2.10
2022-08-03T02:09:36.656Z,2.10
2022-08-03T02:14:41.732Z,2.03
2022-08-03T02:19:46.810Z,1.97
2022-08-03T02:24:50.906Z,1.93
2022-08-03T02:29:55.987Z,2.00
2022-08-03T02:35:01.801Z,1.90
2022-08-03T02:40:07.014Z,2.17
2022-08-03T02:45:14.017Z,2.10
2022-08-03T02:50:20.202Z,2.03
2022-08-03T02:55:24.201Z,2.20
2022-08-03T03:00:28.675Z,2.23
2022-08-03T03:05:52.696Z,2.40
2022-08-03T03:10:57.738Z,2.07
2022-08-03T03:16:02.130Z,2.30
2022-08-03T03:21:08.960Z,2.13
2022-08-03T03:26:14.474Z,2.10
2022-08-03T03:31:17.990Z,2.57
2022-08-03T03:36:22.826Z,2.43
2022-08-03T03:41:26.454Z,2.47
2022-08-03T03:46:30.093Z,2.47
2022-08-03T03:51:34.840Z,2.57
2022-08-03T03:56:38.530Z,2.77
2022-08-03T04:01:41.975Z,2.57
2022-08-03T04:07:04.124Z,2.30
2022-08-03T04:12:07.836Z,2.70
2022-08-03T04:17:13.785Z,2.70
2022-08-03T04:22:20.191Z,2.20
2022-08-03T04:27:26.531Z,2.20
2022-08-03T04:32:30.999Z,1.93
2022-08-03T04:37:39.546Z,2.90
2022-08-03T04:42:44.262Z,2.87
2022-08-03T04:47:48.163Z,2.87
2022-08-03T04:52:53.186Z,2.70
2022-08-03T04:57:56.734Z,2.80
2022-08-03T05:03:00.166Z,3.00
2022-08-03T05:08:05.040Z,3.10
2022-08-03T05:13:14.653Z,2.70
2022-08-03T05:18:18.502Z,2.30
2022-08-03T05:23:23.423Z,2.20
2022-08-03T05:28:27.040Z,2.23
2022-08-03T05:33:30.712Z,2.50
2022-08-03T05:38:36.428Z,2.43
2022-08-03T05:43:39.850Z,2.30
2022-08-03T05:48:43.331Z,2.27
2022-08-03T05:53:48.046Z,2.87
2022-08-03T05:58:52.277Z,2.50
2022-08-03T06:03:55.786Z,2.70
2022-08-03T06:09:00.661Z,2.80
2022-08-03T06:14:04.359Z,2.40
2022-08-03T06:19:07.822Z,2.50
2022-08-03T06:24:12.711Z,2.00
2022-08-03T06:29:18.838Z,2.47
2022-08-03T06:34:33.306Z,2.30
2022-08-03T06:39:40.133Z,2.90
2022-08-03T06:44:43.536Z,2.22
2022-08-03T06:50:12.695Z,2.15
2022-08-03T06:55:11.815Z,2.25
2022-08-03T07:00:15.584Z,2.13
2022-08-03T07:05:19.183Z,1.65
2022-08-03T07:10:23.980Z,1.80
2022-08-03T07:15:54.181Z,1.50
2022-08-03T07:20:50.972Z,1.70
2022-08-03T07:25:55.901Z,1.77
2022-08-03T07:30:59.591Z,1.85
2022-08-03T07:36:03.857Z,1.63
2022-08-03T07:41:08.756Z,1.70
2022-08-03T07:46:12.243Z,1.33
2022-08-03T07:51:15.729Z,1.55
2022-08-03T07:56:21.477Z,1.40
2022-08-03T08:01:25.412Z,1.73
2022-08-03T08:06:28.885Z,1.40
2022-08-03T08:11:38.168Z,1.50
2022-08-03T08:16:43.283Z,1.40
2022-08-03T08:21:53.122Z,1.40
2022-08-03T08:27:08.802Z,1.40
2022-08-03T08:32:13.318Z,1.50
2022-08-03T08:37:16.868Z,1.40
2022-08-03T08:42:21.736Z,1.30
2022-08-03T08:47:26.354Z,1.50
2022-08-03T08:52:32.187Z,1.42
2022-08-03T08:57:43.099Z,1.50
2022-08-03T09:02:47.513Z,1.48
2022-08-03T09:07:50.927Z,1.70
2022-08-03T09:12:55.798Z,1.30
2022-08-03T09:18:00.539Z,1.42
2022-08-03T09:23:19.037Z,1.52
2022-08-03T09:29:01.143Z,1.60
2022-08-03T09:34:01.206Z,1.48
2022-08-03T09:39:06.516Z,1.73
2022-08-03T09:44:25.315Z,1.30
2022-08-03T09:49:29.345Z,1.50
2022-08-03T09:54:34.248Z,1.45
2022-08-03T09:59:41.235Z,1.88
2022-08-03T10:04:48.368Z,1.60
2022-08-03T10:09:55.651Z,1.20
2022-08-03T10:15:00.488Z,1.17
2022-08-03T10:20:04.878Z,1.52
2022-08-03T10:25:09.447Z,1.40
2022-08-03T10:30:14.937Z,1.30
2022-08-03T10:35:21.584Z,1.15
2022-08-03T10:40:47.574Z,1.10
2022-08-03T10:45:52.416Z,1.25
2022-08-03T10:50:55.966Z,1.40
2022-08-03T10:56:16.958Z,1.20
2022-08-03T11:01:58.868Z,1.35
2022-08-03T11:07:23.054Z,1.30
2022-08-03T11:12:30.822Z,1.25
2022-08-03T11:17:46.252Z,0.90
2022-08-03T11:23:01.820Z,1.38
2022-08-03T11:28:20.146Z,1.20
2022-08-03T11:33:32.993Z,1.42
2022-08-03T11:38:57.836Z,1.10
2022-08-03T11:44:01.453Z,1.25
2022-08-03T11:49:09.868Z,1.20
2022-08-03T11:54:15.486Z,1.30
2022-08-03T11:59:22.120Z,1.30
2022-08-03T12:04:26.213Z,1.30
2022-08-03T12:09:31.097Z,1.30
2022-08-03T12:14:49.326Z,1.30
2022-08-03T12:19:55.442Z,1.30
2022-08-03T12:25:00.409Z,1.58
2022-08-03T12:30:04.277Z,1.30
2022-08-03T12:35:08.322Z,1.30
2022-08-03T12:40:20.535Z,1.30
2022-08-03T12:45:26.506Z,1.20
2022-08-03T12:50:31.396Z,1.30
2022-08-03T12:55:57.053Z,1.20
2022-08-03T13:01:00.513Z,1.30
2022-08-03T13:06:11.788Z,1.10
2022-08-03T13:11:52.502Z,1.30
2022-08-03T13:16:50.838Z,1.10
2022-08-03T13:22:04.075Z,1.20
2022-08-03T13:28:01.837Z,1.08
2022-08-03T13:32:33.989Z,1.25
2022-08-03T13:37:37.727Z,1.50
2022-08-03T13:42:42.633Z,1.25
2022-08-03T13:47:46.229Z,1.40
2022-08-03T13:52:49.672Z,1.10
2022-08-03T13:58:11.350Z,1.20
2022-08-03T14:03:15.265Z,1.20
2022-08-03T14:08:18.888Z,1.10
2022-08-03T14:13:23.638Z,1.20
2022-08-03T14:18:29.239Z,1.20
2022-08-03T14:23:38.668Z,1.42
2022-08-03T14:28:43.523Z,1.40
2022-08-03T14:33:46.955Z,1.20
2022-08-03T14:38:50.543Z,1.40
2022-08-03T14:44:01.222Z,1.13
2022-08-03T14:50:30.699Z,1.10
2022-08-03T14:54:31.019Z,1.30
2022-08-03T14:59:55.495Z,1.38
2022-08-03T15:04:59.265Z,1.30
2022-08-03T15:10:03.037Z,1.10
2022-08-03T15:15:08.494Z,1.40
2022-08-03T15:20:28.967Z,1.30
2022-08-03T15:26:03.115Z,1.55
2022-08-03T15:31:00.687Z,1.25
2022-08-03T15:36:04.560Z,1.58
2022-08-03T15:41:08.045Z,1.17
2022-08-03T15:46:33.804Z,1.50
2022-08-03T15:51:42.771Z,1.45
2022-08-03T15:56:48.229Z,1.23
2022-08-03T16:01:55.109Z,1.40
2022-08-03T16:06:58.518Z,1.20
2022-08-03T16:12:01.933Z,1.15
2022-08-03T16:17:06.814Z,1.20
2022-08-03T16:22:10.259Z,1.20
2022-08-03T16:27:25.048Z,1.23
2022-08-03T16:32:41.405Z,1.10
2022-08-03T16:37:50.618Z,1.35
2022-08-03T16:43:00.265Z,1.20
2022-08-03T16:48:05.917Z,1.20
2022-08-03T16:53:10.055Z,1.48
2022-08-03T16:58:24.294Z,1.52
2022-08-03T17:03:57.195Z,1.10
2022-08-03T17:09:09.219Z,1.30
2022-08-03T17:14:14.473Z,1.50
2022-08-03T17:19:19.399Z,1.02
2022-08-03T17:24:26.487Z,1.17
2022-08-03T17:29:31.107Z,1.48
2022-08-03T17:34:36.208Z,1.40
2022-08-03T17:45:07.094Z,1.33
2022-08-03T17:50:25.404Z,1.30
2022-08-03T17:55:55.894Z,1.60
2022-08-03T18:01:59.299Z,1.38
2022-08-03T18:06:55.700Z,1.42
2022-08-03T18:12:01.835Z,1.50
2022-08-03T18:17:10.521Z,1.38
2022-08-03T18:22:15.713Z,1.40
2022-08-03T18:27:21.119Z,1.30
2022-08-03T18:32:27.412Z,1.60
2022-08-03T18:37:33.633Z,1.33
2022-08-03T18:42:55.776Z,1.50
2022-08-03T18:48:05.049Z,1.20
2022-08-03T18:53:16.373Z,1.17
2022-08-03T18:58:24.875Z,1.42
2022-08-03T19:03:42.731Z,1.35
2022-08-03T19:08:50.386Z,1.50
2022-08-03T19:13:56.662Z,1.52
2022-08-03T19:19:00.828Z,1.30
2022-08-03T19:24:10.059Z,1.30
2022-08-03T19:29:15.039Z,1.30
2022-08-03T19:34:19.415Z,1.20
2022-08-03T19:39:24.298Z,1.40
2022-08-03T19:44:30.648Z,1.40
2022-08-03T19:50:04.607Z,1.40
2022-08-03T19:55:02.510Z,1.60
2022-08-03T20:00:08.913Z,1.50
2022-08-03T20:05:15.235Z,1.45
2022-08-03T20:10:20.629Z,1.30
2022-08-03T20:15:31.511Z,1.35
2022-08-03T20:20:36.520Z,1.60
2022-08-03T20:25:48.818Z,1.55
2022-08-03T20:31:01.848Z,1.67
2022-08-03T20:36:05.834Z,1.30
2022-08-03T20:41:11.150Z,1.40
2022-08-03T20:46:30.999Z,1.05
2022-08-03T20:51:50.721Z,1.20
2022-08-03T20:56:58.578Z,1.17
2022-08-03T21:02:02.003Z,1.40
2022-08-03T21:07:16.303Z,1.45
2022-08-03T21:12:37.334Z,1.40
2022-08-03T21:17:46.878Z,1.52
2022-08-03T21:22:53.509Z,1.30
2022-08-03T21:27:58.914Z,1.30
2022-08-03T21:33:02.388Z,1.20
2022-08-03T21:38:20.789Z,1.60
2022-08-03T21:43:34.779Z,1.17
2022-08-03T21:48:39.682Z,1.40
2022-08-03T21:54:02.926Z,1.63
2022-08-03T21:59:10.061Z,1.25
2022-08-03T22:04:53.600Z,1.40
2022-08-03T22:09:50.229Z,1.45
2022-08-03T22:15:01.042Z,1.30
2022-08-03T22:20:06.094Z,1.48
2022-08-03T22:25:12.045Z,1.60
2022-08-03T22:30:18.734Z,1.60
2022-08-03T22:35:22.573Z,1.48
2022-08-03T22:40:27.148Z,1.48
2022-08-03T22:46:06.947Z,1.40
2022-08-03T22:50:56.515Z,1.63
2022-08-03T22:56:00.138Z,1.83
2022-08-03T23:01:07.149Z,1.45
2022-08-03T23:06:10.898Z,1.42
2022-08-03T23:11:15.382Z,1.30
2022-08-03T23:16:29.489Z,1.67
2022-08-03T23:21:53.479Z,1.42
2022-08-03T23:26:57.786Z,1.35
2022-08-03T23:32:02.959Z,1.38
2022-08-03T23:37:06.752Z,1.60
2022-08-03T23:42:10.789Z,1.77
2022-08-03T23:47:15.633Z,1.90
2022-08-03T23:52:24.212Z,1.80
2022-08-03T23:57:30.820Z,1.48
